sensor_id;sensor_type;location;lat;lon;timestamp;temperature;humidity
12446;DHT22;6287;50.984;7.022;2023-03-23T00:01:06;13.10;99.90
12446;DHT22;6287;50.984;7.022;2023-03-23T00:03:35;13.20;99.90
12446;DHT22;6287;50.984;7.022;2023-03-23T00:06:01;13.20;99.90
12446;DHT22;6287;50.984;7.022;2023-03-23T00:08:34;13.20;99.90
12446;DHT22;6287;50.984;7.022;2023-03-23T00:11:03;13.20;99.90
12446;DHT22;6287;50.984;7.022;2023-03-23T00:13:31;13.20;99.90
12446;DHT22;6287;50.984;7.022;2023-03-23T00:15:59;13.20;99.90
12446;DHT22;6287;50.984;7.022;2023-03-23T00:18:27;13.20;99.90
12446;DHT22;6287;50.984;7.022;2023-03-23T00:20:55;13.20;99.90
12446;DHT22;6287;50.984;7.022;2023-03-23T00:23:25;13.20;99.90
12446;DHT22;6287;50.984;7.022;2023-03-23T00:25:55;13.20;99.90
12446;DHT22;6287;50.984;7.022;2023-03-23T00:28:27;13.20;99.90
12446;DHT22;6287;50.984;7.022;2023-03-23T00:33:29;13.20;99.90
12446;DHT22;6287;50.984;7.022;2023-03-23T00:35:58;13.20;99.90
12446;DHT22;6287;50.984;7.022;2023-03-23T00:38:24;13.20;99.90
12446;DHT22;6287;50.984;7.022;2023-03-23T00:40:52;13.30;99.90
12446;DHT22;6287;50.984;7.022;2023-03-23T00:43:21;13.20;99.90
12446;DHT22;6287;50.984;7.022;2023-03-23T00:45:52;13.20;99.90
12446;DHT22;6287;50.984;7.022;2023-03-23T00:48:21;13.20;99.90
12446;DHT22;6287;50.984;7.022;2023-03-23T00:50:50;13.20;99.90
12446;DHT22;6287;50.984;7.022;2023-03-23T00:53:17;13.20;99.90
12446;DHT22;6287;50.984;7.022;2023-03-23T00:55:47;13.20;99.90
12446;DHT22;6287;50.984;7.022;2023-03-23T00:58:13;13.20;99.90
12446;DHT22;6287;50.984;7.022;2023-03-23T01:00:42;13.20;99.90
12446;DHT22;6287;50.984;7.022;2023-03-23T01:03:10;13.30;99.90
12446;DHT22;6287;50.984;7.022;2023-03-23T01:05:46;13.20;99.90
12446;DHT22;6287;50.984;7.022;2023-03-23T01:08:20;13.20;99.90
12446;DHT22;6287;50.984;7.022;2023-03-23T01:10:47;13.20;99.90
12446;DHT22;6287;50.984;7.022;2023-03-23T01:13:13;13.20;99.90
12446;DHT22;6287;50.984;7.022;2023-03-23T01:15:42;13.10;99.90
12446;DHT22;6287;50.984;7.022;2023-03-23T01:18:08;13.10;99.90
12446;DHT22;6287;50.984;7.022;2023-03-23T01:20:36;13.00;99.90
12446;DHT22;6287;50.984;7.022;2023-03-23T01:23:04;13.00;99.90
12446;DHT22;6287;50.984;7.022;2023-03-23T01:25:34;13.00;99.90
12446;DHT22;6287;50.984;7.022;2023-03-23T01:28:01;13.00;99.90
12446;DHT22;6287;50.984;7.022;2023-03-23T01:30:27;13.00;99.90
12446;DHT22;6287;50.984;7.022;2023-03-23T01:32:55;13.00;99.90
12446;DHT22;6287;50.984;7.022;2023-03-23T01:35:23;13.00;99.90
12446;DHT22;6287;50.984;7.022;2023-03-23T01:37:51;13.00;99.90
12446;DHT22;6287;50.984;7.022;2023-03-23T01:40:17;13.00;99.90
12446;DHT22;6287;50.984;7.022;2023-03-23T01:42:42;13.00;99.90
12446;DHT22;6287;50.984;7.022;2023-03-23T01:47:59;13.00;99.90
12446;DHT22;6287;50.984;7.022;2023-03-23T01:50:27;12.90;99.90
12446;DHT22;6287;50.984;7.022;2023-03-23T01:52:55;12.90;99.90
12446;DHT22;6287;50.984;7.022;2023-03-23T01:55:22;12.80;99.90
12446;DHT22;6287;50.984;7.022;2023-03-23T01:57:49;12.70;99.90
12446;DHT22;6287;50.984;7.022;2023-03-23T02:00:15;12.70;99.90
12446;DHT22;6287;50.984;7.022;2023-03-23T02:02:43;12.60;99.90
12446;DHT22;6287;50.984;7.022;2023-03-23T02:05:37;12.50;99.90
12446;DHT22;6287;50.984;7.022;2023-03-23T02:08:07;12.50;99.90
12446;DHT22;6287;50.984;7.022;2023-03-23T02:10:36;12.40;99.90
12446;DHT22;6287;50.984;7.022;2023-03-23T02:13:04;12.30;99.90
12446;DHT22;6287;50.984;7.022;2023-03-23T02:21:40;12.30;99.90
12446;DHT22;6287;50.984;7.022;2023-03-23T02:34:44;12.20;99.90
12446;DHT22;6287;50.984;7.022;2023-03-23T02:37:31;12.10;99.90
12446;DHT22;6287;50.984;7.022;2023-03-23T02:40:12;12.10;99.90
12446;DHT22;6287;50.984;7.022;2023-03-23T02:42:47;12.00;99.90
12446;DHT22;6287;50.984;7.022;2023-03-23T02:45:15;12.00;99.90
12446;DHT22;6287;50.984;7.022;2023-03-23T02:47:46;11.90;99.90
12446;DHT22;6287;50.984;7.022;2023-03-23T02:50:14;11.90;99.90
12446;DHT22;6287;50.984;7.022;2023-03-23T02:52:42;12.00;99.90
12446;DHT22;6287;50.984;7.022;2023-03-23T02:55:08;12.00;99.90
12446;DHT22;6287;50.984;7.022;2023-03-23T02:57:37;12.00;99.90
12446;DHT22;6287;50.984;7.022;2023-03-23T03:00:05;12.00;99.90
12446;DHT22;6287;50.984;7.022;2023-03-23T03:02:38;12.00;99.90
12446;DHT22;6287;50.984;7.022;2023-03-23T03:05:24;12.00;99.90
12446;DHT22;6287;50.984;7.022;2023-03-23T03:10:33;11.90;99.90
12446;DHT22;6287;50.984;7.022;2023-03-23T03:15:44;12.00;99.90
12446;DHT22;6287;50.984;7.022;2023-03-23T03:18:38;12.00;99.90
12446;DHT22;6287;50.984;7.022;2023-03-23T03:21:08;12.00;99.90
12446;DHT22;6287;50.984;7.022;2023-03-23T03:23:40;12.00;99.90
12446;DHT22;6287;50.984;7.022;2023-03-23T03:26:11;12.00;99.90
12446;DHT22;6287;50.984;7.022;2023-03-23T03:28:37;12.00;99.90
12446;DHT22;6287;50.984;7.022;2023-03-23T03:31:06;12.00;99.90
12446;DHT22;6287;50.984;7.022;2023-03-23T03:33:33;12.00;99.90
12446;DHT22;6287;50.984;7.022;2023-03-23T03:36:01;12.00;99.90
12446;DHT22;6287;50.984;7.022;2023-03-23T03:38:28;12.10;99.90
12446;DHT22;6287;50.984;7.022;2023-03-23T03:40:54;12.10;99.90
12446;DHT22;6287;50.984;7.022;2023-03-23T03:43:23;12.10;99.90
12446;DHT22;6287;50.984;7.022;2023-03-23T03:45:50;12.10;99.90
12446;DHT22;6287;50.984;7.022;2023-03-23T03:48:16;12.10;99.90
12446;DHT22;6287;50.984;7.022;2023-03-23T03:50:42;12.10;99.90
12446;DHT22;6287;50.984;7.022;2023-03-23T03:53:07;12.10;99.90
12446;DHT22;6287;50.984;7.022;2023-03-23T03:55:33;12.10;99.90
12446;DHT22;6287;50.984;7.022;2023-03-23T03:58:04;12.10;99.90
12446;DHT22;6287;50.984;7.022;2023-03-23T04:00:30;12.10;99.90
12446;DHT22;6287;50.984;7.022;2023-03-23T04:02:58;12.10;99.90
12446;DHT22;6287;50.984;7.022;2023-03-23T04:05:25;12.10;99.90
12446;DHT22;6287;50.984;7.022;2023-03-23T04:07:54;12.10;99.90
12446;DHT22;6287;50.984;7.022;2023-03-23T04:10:29;12.10;99.90
12446;DHT22;6287;50.984;7.022;2023-03-23T04:12:56;12.10;99.90
12446;DHT22;6287;50.984;7.022;2023-03-23T04:15:25;12.10;99.90
12446;DHT22;6287;50.984;7.022;2023-03-23T04:17:51;12.10;99.90
12446;DHT22;6287;50.984;7.022;2023-03-23T04:20:17;12.10;99.90
12446;DHT22;6287;50.984;7.022;2023-03-23T04:22:46;12.10;99.90
12446;DHT22;6287;50.984;7.022;2023-03-23T04:25:17;12.00;99.90
12446;DHT22;6287;50.984;7.022;2023-03-23T04:27:49;12.00;99.90
12446;DHT22;6287;50.984;7.022;2023-03-23T04:30:18;12.00;99.90
12446;DHT22;6287;50.984;7.022;2023-03-23T04:32:47;11.90;99.90
12446;DHT22;6287;50.984;7.022;2023-03-23T04:35:16;12.00;99.90
12446;DHT22;6287;50.984;7.022;2023-03-23T04:37:42;11.90;99.90
12446;DHT22;6287;50.984;7.022;2023-03-23T04:40:11;11.90;99.90
12446;DHT22;6287;50.984;7.022;2023-03-23T04:42:39;11.90;99.90
12446;DHT22;6287;50.984;7.022;2023-03-23T04:45:06;11.90;99.90
12446;DHT22;6287;50.984;7.022;2023-03-23T04:47:34;11.90;99.90
12446;DHT22;6287;50.984;7.022;2023-03-23T04:50:06;11.90;99.90
12446;DHT22;6287;50.984;7.022;2023-03-23T04:52:33;11.80;99.90
12446;DHT22;6287;50.984;7.022;2023-03-23T04:54:59;11.90;99.90
12446;DHT22;6287;50.984;7.022;2023-03-23T04:57:24;11.90;99.90
12446;DHT22;6287;50.984;7.022;2023-03-23T04:59:53;11.90;99.90
12446;DHT22;6287;50.984;7.022;2023-03-23T05:02:23;11.80;99.90
12446;DHT22;6287;50.984;7.022;2023-03-23T05:04:50;11.80;99.90
12446;DHT22;6287;50.984;7.022;2023-03-23T05:07:18;11.90;99.90
12446;DHT22;6287;50.984;7.022;2023-03-23T05:09:47;11.80;99.90
12446;DHT22;6287;50.984;7.022;2023-03-23T05:12:12;11.80;99.90
12446;DHT22;6287;50.984;7.022;2023-03-23T05:14:41;11.90;99.90
12446;DHT22;6287;50.984;7.022;2023-03-23T05:17:06;11.90;99.90
12446;DHT22;6287;50.984;7.022;2023-03-23T05:19:35;11.90;99.90
12446;DHT22;6287;50.984;7.022;2023-03-23T05:22:01;11.90;99.90
12446;DHT22;6287;50.984;7.022;2023-03-23T05:24:29;11.90;99.90
12446;DHT22;6287;50.984;7.022;2023-03-23T05:27:00;11.90;99.90
12446;DHT22;6287;50.984;7.022;2023-03-23T05:29:28;11.90;99.90
12446;DHT22;6287;50.984;7.022;2023-03-23T05:31:56;11.90;99.90
12446;DHT22;6287;50.984;7.022;2023-03-23T05:34:28;11.90;99.90
12446;DHT22;6287;50.984;7.022;2023-03-23T05:36:56;11.90;99.90
12446;DHT22;6287;50.984;7.022;2023-03-23T05:39:25;12.00;99.90
12446;DHT22;6287;50.984;7.022;2023-03-23T05:41:53;12.00;99.90
12446;DHT22;6287;50.984;7.022;2023-03-23T05:44:25;11.90;99.90
12446;DHT22;6287;50.984;7.022;2023-03-23T05:46:54;12.00;99.90
12446;DHT22;6287;50.984;7.022;2023-03-23T05:49:24;12.00;99.90
12446;DHT22;6287;50.984;7.022;2023-03-23T05:51:54;12.00;99.90
12446;DHT22;6287;50.984;7.022;2023-03-23T05:54:19;12.00;99.90
12446;DHT22;6287;50.984;7.022;2023-03-23T05:56:47;12.00;99.90
12446;DHT22;6287;50.984;7.022;2023-03-23T05:59:14;12.00;99.90
12446;DHT22;6287;50.984;7.022;2023-03-23T06:01:42;12.00;99.90
12446;DHT22;6287;50.984;7.022;2023-03-23T06:04:07;12.00;99.90
12446;DHT22;6287;50.984;7.022;2023-03-23T06:06:34;12.00;99.90
12446;DHT22;6287;50.984;7.022;2023-03-23T06:09:00;12.00;99.90
12446;DHT22;6287;50.984;7.022;2023-03-23T06:11:26;12.00;99.90
12446;DHT22;6287;50.984;7.022;2023-03-23T06:13:52;12.00;99.90
12446;DHT22;6287;50.984;7.022;2023-03-23T06:16:18;12.00;99.90
12446;DHT22;6287;50.984;7.022;2023-03-23T06:18:46;12.00;99.90
12446;DHT22;6287;50.984;7.022;2023-03-23T06:21:17;12.10;99.90
12446;DHT22;6287;50.984;7.022;2023-03-23T06:23:46;12.10;99.90
12446;DHT22;6287;50.984;7.022;2023-03-23T06:26:18;12.10;99.90
12446;DHT22;6287;50.984;7.022;2023-03-23T06:28:43;12.10;99.90
12446;DHT22;6287;50.984;7.022;2023-03-23T06:31:13;12.20;99.90
12446;DHT22;6287;50.984;7.022;2023-03-23T06:33:42;12.30;99.90
12446;DHT22;6287;50.984;7.022;2023-03-23T06:36:08;12.30;99.90
12446;DHT22;6287;50.984;7.022;2023-03-23T06:38:35;12.40;99.90
12446;DHT22;6287;50.984;7.022;2023-03-23T06:41:03;12.40;99.90
12446;DHT22;6287;50.984;7.022;2023-03-23T06:43:30;12.50;99.90
12446;DHT22;6287;50.984;7.022;2023-03-23T06:45:59;12.60;99.90
12446;DHT22;6287;50.984;7.022;2023-03-23T06:48:25;12.70;99.90
12446;DHT22;6287;50.984;7.022;2023-03-23T06:50:50;12.70;99.90
12446;DHT22;6287;50.984;7.022;2023-03-23T06:53:19;12.80;99.90
12446;DHT22;6287;50.984;7.022;2023-03-23T06:55:46;12.80;99.90
12446;DHT22;6287;50.984;7.022;2023-03-23T06:58:16;12.90;99.90
12446;DHT22;6287;50.984;7.022;2023-03-23T07:00:43;13.00;99.90
12446;DHT22;6287;50.984;7.022;2023-03-23T07:03:09;13.00;99.90
12446;DHT22;6287;50.984;7.022;2023-03-23T07:05:35;13.10;99.90
12446;DHT22;6287;50.984;7.022;2023-03-23T07:08:04;13.10;99.90
12446;DHT22;6287;50.984;7.022;2023-03-23T07:10:30;13.00;99.90
12446;DHT22;6287;50.984;7.022;2023-03-23T07:12:57;13.00;99.90
12446;DHT22;6287;50.984;7.022;2023-03-23T07:15:23;13.00;99.90
12446;DHT22;6287;50.984;7.022;2023-03-23T07:17:48;13.10;99.90
12446;DHT22;6287;50.984;7.022;2023-03-23T07:20:17;13.10;99.90
12446;DHT22;6287;50.984;7.022;2023-03-23T07:22:42;13.10;99.90
12446;DHT22;6287;50.984;7.022;2023-03-23T07:25:10;13.10;99.90
12446;DHT22;6287;50.984;7.022;2023-03-23T07:27:38;13.10;99.90
12446;DHT22;6287;50.984;7.022;2023-03-23T07:30:07;13.10;99.90
12446;DHT22;6287;50.984;7.022;2023-03-23T07:32:35;13.20;99.90
12446;DHT22;6287;50.984;7.022;2023-03-23T07:35:03;13.30;99.90
12446;DHT22;6287;50.984;7.022;2023-03-23T07:37:29;13.30;99.90
12446;DHT22;6287;50.984;7.022;2023-03-23T07:39:58;13.30;99.90
12446;DHT22;6287;50.984;7.022;2023-03-23T07:42:23;13.40;99.90
12446;DHT22;6287;50.984;7.022;2023-03-23T07:44:56;13.40;99.90
12446;DHT22;6287;50.984;7.022;2023-03-23T07:47:21;13.40;99.90
12446;DHT22;6287;50.984;7.022;2023-03-23T07:49:47;13.50;99.90
12446;DHT22;6287;50.984;7.022;2023-03-23T07:52:13;13.50;99.90
12446;DHT22;6287;50.984;7.022;2023-03-23T07:54:39;13.50;99.90
12446;DHT22;6287;50.984;7.022;2023-03-23T07:57:04;13.50;99.90
12446;DHT22;6287;50.984;7.022;2023-03-23T07:59:34;13.50;99.90
12446;DHT22;6287;50.984;7.022;2023-03-23T08:02:00;13.50;99.90
12446;DHT22;6287;50.984;7.022;2023-03-23T08:04:29;13.60;99.90
12446;DHT22;6287;50.984;7.022;2023-03-23T08:06:55;13.60;99.90
12446;DHT22;6287;50.984;7.022;2023-03-23T08:09:25;13.60;99.90
12446;DHT22;6287;50.984;7.022;2023-03-23T08:11:52;13.70;99.90
12446;DHT22;6287;50.984;7.022;2023-03-23T08:14:18;13.70;99.90
12446;DHT22;6287;50.984;7.022;2023-03-23T08:16:43;13.70;99.90
12446;DHT22;6287;50.984;7.022;2023-03-23T08:19:09;13.70;99.90
12446;DHT22;6287;50.984;7.022;2023-03-23T08:21:35;13.80;99.90
12446;DHT22;6287;50.984;7.022;2023-03-23T08:24:01;13.80;99.90
12446;DHT22;6287;50.984;7.022;2023-03-23T08:26:28;13.90;99.90
12446;DHT22;6287;50.984;7.022;2023-03-23T08:28:53;13.90;99.90
12446;DHT22;6287;50.984;7.022;2023-03-23T08:31:19;13.90;99.90
12446;DHT22;6287;50.984;7.022;2023-03-23T08:33:44;14.00;99.90
12446;DHT22;6287;50.984;7.022;2023-03-23T08:36:10;14.00;99.90
12446;DHT22;6287;50.984;7.022;2023-03-23T08:38:37;14.10;99.90
12446;DHT22;6287;50.984;7.022;2023-03-23T08:41:06;14.10;99.90
12446;DHT22;6287;50.984;7.022;2023-03-23T08:43:33;14.10;99.90
12446;DHT22;6287;50.984;7.022;2023-03-23T08:46:01;14.20;99.90
12446;DHT22;6287;50.984;7.022;2023-03-23T08:48:34;14.20;99.90
12446;DHT22;6287;50.984;7.022;2023-03-23T08:51:01;14.20;99.90
12446;DHT22;6287;50.984;7.022;2023-03-23T08:53:27;14.30;99.90
12446;DHT22;6287;50.984;7.022;2023-03-23T08:55:55;14.30;99.90
12446;DHT22;6287;50.984;7.022;2023-03-23T08:58:21;14.30;99.90
12446;DHT22;6287;50.984;7.022;2023-03-23T09:00:48;14.40;99.90
12446;DHT22;6287;50.984;7.022;2023-03-23T09:03:13;14.40;99.90
12446;DHT22;6287;50.984;7.022;2023-03-23T09:05:45;14.30;99.90
12446;DHT22;6287;50.984;7.022;2023-03-23T09:08:11;14.30;99.90
12446;DHT22;6287;50.984;7.022;2023-03-23T09:10:38;14.20;99.90
12446;DHT22;6287;50.984;7.022;2023-03-23T09:13:04;14.20;99.90
12446;DHT22;6287;50.984;7.022;2023-03-23T09:15:30;14.20;99.90
12446;DHT22;6287;50.984;7.022;2023-03-23T09:17:58;14.10;99.90
12446;DHT22;6287;50.984;7.022;2023-03-23T09:20:28;14.10;99.90
12446;DHT22;6287;50.984;7.022;2023-03-23T09:22:55;14.20;99.90
12446;DHT22;6287;50.984;7.022;2023-03-23T09:25:24;14.20;99.90
12446;DHT22;6287;50.984;7.022;2023-03-23T09:27:56;14.30;99.90
12446;DHT22;6287;50.984;7.022;2023-03-23T09:30:33;14.30;99.90
12446;DHT22;6287;50.984;7.022;2023-03-23T09:33:02;14.30;99.90
12446;DHT22;6287;50.984;7.022;2023-03-23T09:35:29;14.40;99.90
12446;DHT22;6287;50.984;7.022;2023-03-23T09:37:57;14.40;99.90
12446;DHT22;6287;50.984;7.022;2023-03-23T09:40:32;14.50;99.90
12446;DHT22;6287;50.984;7.022;2023-03-23T09:43:24;14.50;99.90
12446;DHT22;6287;50.984;7.022;2023-03-23T09:54:07;14.50;99.90
12446;DHT22;6287;50.984;7.022;2023-03-23T09:56:36;14.50;99.90
12446;DHT22;6287;50.984;7.022;2023-03-23T09:59:31;14.50;99.90
12446;DHT22;6287;50.984;7.022;2023-03-23T10:02:16;14.50;99.90
12446;DHT22;6287;50.984;7.022;2023-03-23T10:04:51;14.60;99.90
12446;DHT22;6287;50.984;7.022;2023-03-23T10:07:23;14.60;99.90
12446;DHT22;6287;50.984;7.022;2023-03-23T10:09:59;14.60;99.90
12446;DHT22;6287;50.984;7.022;2023-03-23T10:12:42;14.70;99.90
12446;DHT22;6287;50.984;7.022;2023-03-23T10:15:15;14.80;99.90
12446;DHT22;6287;50.984;7.022;2023-03-23T10:18:10;14.80;99.90
12446;DHT22;6287;50.984;7.022;2023-03-23T10:21:01;14.90;99.90
12446;DHT22;6287;50.984;7.022;2023-03-23T10:23:52;14.90;99.90
12446;DHT22;6287;50.984;7.022;2023-03-23T10:26:39;14.90;99.90
12446;DHT22;6287;50.984;7.022;2023-03-23T10:29:43;15.00;99.90
12446;DHT22;6287;50.984;7.022;2023-03-23T10:32:20;15.10;99.90
12446;DHT22;6287;50.984;7.022;2023-03-23T10:34:54;15.00;99.90
12446;DHT22;6287;50.984;7.022;2023-03-23T10:37:31;14.90;99.90
12446;DHT22;6287;50.984;7.022;2023-03-23T10:40:04;14.90;99.90
12446;DHT22;6287;50.984;7.022;2023-03-23T10:42:39;14.80;99.90
12446;DHT22;6287;50.984;7.022;2023-03-23T10:45:30;14.80;99.90
12446;DHT22;6287;50.984;7.022;2023-03-23T10:48:17;14.70;99.90
12446;DHT22;6287;50.984;7.022;2023-03-23T10:50:49;14.60;99.90
12446;DHT22;6287;50.984;7.022;2023-03-23T10:53:37;14.50;99.90
12446;DHT22;6287;50.984;7.022;2023-03-23T10:56:22;14.50;99.90
12446;DHT22;6287;50.984;7.022;2023-03-23T10:58:48;14.40;99.90
12446;DHT22;6287;50.984;7.022;2023-03-23T11:01:13;14.40;99.90
12446;DHT22;6287;50.984;7.022;2023-03-23T11:06:18;14.30;99.90
12446;DHT22;6287;50.984;7.022;2023-03-23T11:08:53;14.30;99.90
12446;DHT22;6287;50.984;7.022;2023-03-23T11:11:25;14.30;99.90
12446;DHT22;6287;50.984;7.022;2023-03-23T11:13:58;14.30;99.90
12446;DHT22;6287;50.984;7.022;2023-03-23T11:16:29;14.30;99.90
12446;DHT22;6287;50.984;7.022;2023-03-23T11:18:55;14.30;99.90
12446;DHT22;6287;50.984;7.022;2023-03-23T11:21:24;14.40;99.90
12446;DHT22;6287;50.984;7.022;2023-03-23T11:23:53;14.40;99.90
12446;DHT22;6287;50.984;7.022;2023-03-23T11:26:32;14.50;99.90
12446;DHT22;6287;50.984;7.022;2023-03-23T11:29:21;14.70;99.90
12446;DHT22;6287;50.984;7.022;2023-03-23T11:34:24;14.90;99.90
12446;DHT22;6287;50.984;7.022;2023-03-23T11:36:58;14.90;99.90
12446;DHT22;6287;50.984;7.022;2023-03-23T11:39:29;14.90;99.90
12446;DHT22;6287;50.984;7.022;2023-03-23T11:42:00;14.80;99.90
12446;DHT22;6287;50.984;7.022;2023-03-23T11:44:39;14.90;99.90
12446;DHT22;6287;50.984;7.022;2023-03-23T11:50:01;14.90;99.90
12446;DHT22;6287;50.984;7.022;2023-03-23T11:58:17;14.80;99.90
12446;DHT22;6287;50.984;7.022;2023-03-23T12:00:54;14.60;99.90
12446;DHT22;6287;50.984;7.022;2023-03-23T12:06:35;14.20;99.90
12446;DHT22;6287;50.984;7.022;2023-03-23T12:09:33;14.00;99.90
12446;DHT22;6287;50.984;7.022;2023-03-23T12:25:34;14.70;99.90
12446;DHT22;6287;50.984;7.022;2023-03-23T12:28:50;14.90;99.90
12446;DHT22;6287;50.984;7.022;2023-03-23T12:36:46;15.70;99.90
12446;DHT22;6287;50.984;7.022;2023-03-23T12:42:45;15.90;99.90
12446;DHT22;6287;50.984;7.022;2023-03-23T12:48:23;15.80;99.90
12446;DHT22;6287;50.984;7.022;2023-03-23T12:51:03;15.80;99.90
12446;DHT22;6287;50.984;7.022;2023-03-23T12:54:28;15.80;99.90
12446;DHT22;6287;50.984;7.022;2023-03-23T13:02:01;15.40;99.90
12446;DHT22;6287;50.984;7.022;2023-03-23T13:04:41;15.30;99.90
12446;DHT22;6287;50.984;7.022;2023-03-23T13:07:15;15.30;99.90
12446;DHT22;6287;50.984;7.022;2023-03-23T13:10:02;15.40;99.90
12446;DHT22;6287;50.984;7.022;2023-03-23T13:12:34;15.50;99.90
12446;DHT22;6287;50.984;7.022;2023-03-23T13:18:04;15.60;99.90
12446;DHT22;6287;50.984;7.022;2023-03-23T13:20:42;15.60;99.90
12446;DHT22;6287;50.984;7.022;2023-03-23T13:28:32;15.60;99.90
12446;DHT22;6287;50.984;7.022;2023-03-23T13:33:34;15.70;99.90
12446;DHT22;6287;50.984;7.022;2023-03-23T13:36:12;15.70;99.90
12446;DHT22;6287;50.984;7.022;2023-03-23T13:38:45;15.70;99.90
12446;DHT22;6287;50.984;7.022;2023-03-23T13:41:17;15.70;99.90
12446;DHT22;6287;50.984;7.022;2023-03-23T13:43:43;15.80;99.90
12446;DHT22;6287;50.984;7.022;2023-03-23T13:49:03;15.70;99.90
12446;DHT22;6287;50.984;7.022;2023-03-23T13:54:14;15.40;99.90
12446;DHT22;6287;50.984;7.022;2023-03-23T13:59:30;15.00;99.90
12446;DHT22;6287;50.984;7.022;2023-03-23T14:04:56;15.10;99.90
12446;DHT22;6287;50.984;7.022;2023-03-23T14:07:23;15.20;99.90
12446;DHT22;6287;50.984;7.022;2023-03-23T14:09:50;15.40;99.90
12446;DHT22;6287;50.984;7.022;2023-03-23T14:12:17;15.60;99.90
12446;DHT22;6287;50.984;7.022;2023-03-23T14:14:57;15.80;99.90
12446;DHT22;6287;50.984;7.022;2023-03-23T14:17:39;15.90;99.90
12446;DHT22;6287;50.984;7.022;2023-03-23T14:20:06;16.10;99.90
12446;DHT22;6287;50.984;7.022;2023-03-23T14:22:36;16.10;99.90
12446;DHT22;6287;50.984;7.022;2023-03-23T14:25:17;16.10;99.90
12446;DHT22;6287;50.984;7.022;2023-03-23T14:27:46;16.10;99.90
12446;DHT22;6287;50.984;7.022;2023-03-23T14:30:19;16.10;99.90
12446;DHT22;6287;50.984;7.022;2023-03-23T14:32:47;16.20;99.90
12446;DHT22;6287;50.984;7.022;2023-03-23T14:35:27;16.20;99.90
12446;DHT22;6287;50.984;7.022;2023-03-23T14:37:57;16.20;99.90
12446;DHT22;6287;50.984;7.022;2023-03-23T14:40:26;16.20;99.90
12446;DHT22;6287;50.984;7.022;2023-03-23T14:42:52;16.10;99.90
12446;DHT22;6287;50.984;7.022;2023-03-23T14:45:23;16.00;99.90
12446;DHT22;6287;50.984;7.022;2023-03-23T14:47:50;15.90;99.90
12446;DHT22;6287;50.984;7.022;2023-03-23T14:50:48;15.80;99.90
12446;DHT22;6287;50.984;7.022;2023-03-23T14:53:22;15.50;99.90
12446;DHT22;6287;50.984;7.022;2023-03-23T14:55:49;15.40;99.90
12446;DHT22;6287;50.984;7.022;2023-03-23T14:58:17;15.30;99.90
12446;DHT22;6287;50.984;7.022;2023-03-23T15:03:18;15.00;99.90
12446;DHT22;6287;50.984;7.022;2023-03-23T15:05:48;14.80;99.90
12446;DHT22;6287;50.984;7.022;2023-03-23T15:08:24;14.60;99.90
12446;DHT22;6287;50.984;7.022;2023-03-23T15:13:36;14.40;99.90
12446;DHT22;6287;50.984;7.022;2023-03-23T15:16:11;14.40;99.90
12446;DHT22;6287;50.984;7.022;2023-03-23T15:18:39;14.50;99.90
12446;DHT22;6287;50.984;7.022;2023-03-23T15:21:18;14.60;99.90
12446;DHT22;6287;50.984;7.022;2023-03-23T15:23:44;14.90;99.90
12446;DHT22;6287;50.984;7.022;2023-03-23T15:26:33;15.10;99.90
12446;DHT22;6287;50.984;7.022;2023-03-23T15:31:42;15.80;99.90
12446;DHT22;6287;50.984;7.022;2023-03-23T15:34:34;16.20;99.90
12446;DHT22;6287;50.984;7.022;2023-03-23T15:37:25;16.30;99.90
12446;DHT22;6287;50.984;7.022;2023-03-23T15:39:54;16.60;99.90
12446;DHT22;6287;50.984;7.022;2023-03-23T15:42:34;17.00;99.90
12446;DHT22;6287;50.984;7.022;2023-03-23T15:47:46;17.70;99.90
12446;DHT22;6287;50.984;7.022;2023-03-23T15:50:33;17.70;99.90
12446;DHT22;6287;50.984;7.022;2023-03-23T15:53:01;17.80;99.90
12446;DHT22;6287;50.984;7.022;2023-03-23T15:55:28;17.80;99.90
12446;DHT22;6287;50.984;7.022;2023-03-23T15:58:00;17.60;99.90
12446;DHT22;6287;50.984;7.022;2023-03-23T16:00:27;17.30;99.90
12446;DHT22;6287;50.984;7.022;2023-03-23T16:02:56;16.90;99.90
12446;DHT22;6287;50.984;7.022;2023-03-23T16:05:23;16.70;99.90
12446;DHT22;6287;50.984;7.022;2023-03-23T16:07:49;16.60;99.90
12446;DHT22;6287;50.984;7.022;2023-03-23T16:10:20;17.10;99.90
12446;DHT22;6287;50.984;7.022;2023-03-23T16:12:47;17.60;99.90
12446;DHT22;6287;50.984;7.022;2023-03-23T16:15:15;17.80;99.90
12446;DHT22;6287;50.984;7.022;2023-03-23T16:17:41;17.80;99.90
12446;DHT22;6287;50.984;7.022;2023-03-23T16:20:19;17.80;99.90
12446;DHT22;6287;50.984;7.022;2023-03-23T16:22:48;17.50;99.90
12446;DHT22;6287;50.984;7.022;2023-03-23T16:25:18;17.20;99.90
12446;DHT22;6287;50.984;7.022;2023-03-23T16:27:44;16.80;99.90
12446;DHT22;6287;50.984;7.022;2023-03-23T16:32:45;16.30;99.90
12446;DHT22;6287;50.984;7.022;2023-03-23T16:35:11;16.10;99.90
12446;DHT22;6287;50.984;7.022;2023-03-23T16:37:46;16.10;99.90
12446;DHT22;6287;50.984;7.022;2023-03-23T16:40:15;16.00;99.90
12446;DHT22;6287;50.984;7.022;2023-03-23T16:42:43;15.80;99.90
12446;DHT22;6287;50.984;7.022;2023-03-23T16:45:10;15.80;99.90
12446;DHT22;6287;50.984;7.022;2023-03-23T16:47:41;15.60;99.90
12446;DHT22;6287;50.984;7.022;2023-03-23T16:50:09;15.60;99.90
12446;DHT22;6287;50.984;7.022;2023-03-23T16:52:40;15.50;99.90
12446;DHT22;6287;50.984;7.022;2023-03-23T16:55:09;15.40;99.90
12446;DHT22;6287;50.984;7.022;2023-03-23T16:57:37;15.40;99.90
12446;DHT22;6287;50.984;7.022;2023-03-23T17:00:06;15.30;99.90
12446;DHT22;6287;50.984;7.022;2023-03-23T17:02:40;15.30;99.90
12446;DHT22;6287;50.984;7.022;2023-03-23T17:05:09;15.30;99.90
12446;DHT22;6287;50.984;7.022;2023-03-23T17:07:39;15.30;99.90
12446;DHT22;6287;50.984;7.022;2023-03-23T17:10:06;15.20;99.90
12446;DHT22;6287;50.984;7.022;2023-03-23T17:12:36;15.20;99.90
12446;DHT22;6287;50.984;7.022;2023-03-23T17:15:02;15.20;99.90
12446;DHT22;6287;50.984;7.022;2023-03-23T17:17:31;15.20;99.90
12446;DHT22;6287;50.984;7.022;2023-03-23T17:19:57;15.20;99.90
12446;DHT22;6287;50.984;7.022;2023-03-23T17:22:28;15.20;99.90
12446;DHT22;6287;50.984;7.022;2023-03-23T17:24:53;15.10;99.90
12446;DHT22;6287;50.984;7.022;2023-03-23T17:27:23;15.10;99.90
12446;DHT22;6287;50.984;7.022;2023-03-23T17:29:52;15.00;99.90
12446;DHT22;6287;50.984;7.022;2023-03-23T17:32:18;15.00;99.90
12446;DHT22;6287;50.984;7.022;2023-03-23T17:34:48;14.90;99.90
12446;DHT22;6287;50.984;7.022;2023-03-23T17:37:16;14.90;99.90
12446;DHT22;6287;50.984;7.022;2023-03-23T17:39:41;14.80;99.90
12446;DHT22;6287;50.984;7.022;2023-03-23T17:42:07;14.70;99.90
12446;DHT22;6287;50.984;7.022;2023-03-23T17:44:33;14.70;99.90
12446;DHT22;6287;50.984;7.022;2023-03-23T17:46:58;14.60;99.90
12446;DHT22;6287;50.984;7.022;2023-03-23T17:49:27;14.50;99.90
12446;DHT22;6287;50.984;7.022;2023-03-23T17:51:58;14.50;99.90
12446;DHT22;6287;50.984;7.022;2023-03-23T17:54:26;14.50;99.90
12446;DHT22;6287;50.984;7.022;2023-03-23T17:56:54;14.40;99.90
12446;DHT22;6287;50.984;7.022;2023-03-23T17:59:23;14.40;99.90
12446;DHT22;6287;50.984;7.022;2023-03-23T18:01:52;14.40;99.90
12446;DHT22;6287;50.984;7.022;2023-03-23T18:04:18;14.30;99.90